Terminal Aerodrome Forecast
Issued by NWS Jackson, MS

Home | Current Version | Previous Version | Text Only | Print | Product List | Glossary On
Versions: 1 2 3 4 5 6 7 8 9 10 11 12 13 14
444
FTUS44 KJAN 271743
TAFGWO
TAF
KGWO 271743Z 2718/2818 13006KT P6SM -RA BKN009 BKN080 OVC100
     FM271900 13008KT 5SM SHRA VCTS BKN007 OVC040CB
     FM272100 13008KT P6SM VCSH SCT008 BKN015
     FM280200 14010KT P6SM BKN015
     FM280600 17011KT 5SM BR OVC007
     FM281500 19015KT P6SM BKN018=

USA.gov is the U.S. government's official web portal to all federal, state and local government web resources and services.